Time;durP1;ratioP1;P1;durP2;ratioP2;P2;SDS_P1;SDS_P2;PMS_P1;PMS_P2;Temp;Humidity;BMP_temperature;BMP_pressure;BME280_temperature;BME280_humidity;BME280_pressure;Samples;Min_cycle;Max_cycle;Signal;HPM_P1;HPM_P2
2023/09/17 00:00:32;;;;;;;10.30;8.82;;;;;;;20.02;100.00;100738.56;5026903;28;20026;-60
2023/09/17 00:02:58;;;;;;;9.13;8.18;;;;;;;20.04;100.00;100743.72;5026148;28;20535;-60
2023/09/17 00:05:24;;;;;;;8.93;7.72;;;;;;;20.05;100.00;100738.41;5026687;28;20033;-60
2023/09/17 00:07:49;;;;;;;10.52;7.75;;;;;;;20.09;100.00;100744.38;5027421;28;20056;-60
2023/09/17 00:10:14;;;;;;;12.20;9.10;;;;;;;20.12;100.00;100749.47;5028330;28;20038;-60
2023/09/17 00:12:40;;;;;;;13.07;8.63;;;;;;;20.15;100.00;100754.56;5019819;28;20152;-63
2023/09/17 00:15:07;;;;;;;12.60;9.40;;;;;;;20.24;100.00;100769.03;5024543;28;20025;-62
2023/09/17 00:17:32;;;;;;;9.27;7.63;;;;;;;20.29;100.00;100765.25;5032349;28;20029;-62
2023/09/17 00:19:58;;;;;;;9.30;7.57;;;;;;;20.33;100.00;100752.84;5031780;28;20044;-62
2023/09/17 00:22:24;;;;;;;9.85;7.63;;;;;;;20.37;100.00;100763.09;5032437;28;20503;-62
2023/09/17 00:24:49;;;;;;;10.40;7.03;;;;;;;20.39;100.00;100781.41;5027829;28;20025;-62
2023/09/17 00:27:14;;;;;;;9.18;6.85;;;;;;;20.39;100.00;100777.03;5014221;28;20082;-58
2023/09/17 00:29:40;;;;;;;7.57;6.65;;;;;;;20.39;99.76;100763.91;5027405;28;20041;-60
2023/09/17 00:32:05;;;;;;;9.18;6.85;;;;;;;20.37;99.30;100755.22;5027437;28;20033;-61
2023/09/17 00:34:30;;;;;;;7.57;6.72;;;;;;;20.21;100.00;100749.03;5027672;28;20073;-61
2023/09/17 00:36:56;;;;;;;10.63;7.13;;;;;;;20.06;100.00;100742.75;5028288;28;20041;-69
2023/09/17 00:39:22;;;;;;;8.07;6.90;;;;;;;19.98;100.00;100744.00;5031921;28;20127;-69
2023/09/17 00:41:47;;;;;;;10.00;7.60;;;;;;;19.95;100.00;100731.03;4993605;28;20041;-69
2023/09/17 00:44:13;;;;;;;11.23;7.55;;;;;;;19.86;100.00;100736.75;5016613;28;20109;-63
2023/09/17 00:46:38;;;;;;;8.13;7.20;;;;;;;19.79;100.00;100741.41;5027395;28;20029;-64
2023/09/17 00:49:12;;;;;;;7.22;6.53;;;;;;;19.75;100.00;100739.81;5030123;28;20143;-63
2023/09/17 00:51:38;;;;;;;7.87;7.07;;;;;;;19.73;100.00;100752.16;5031703;28;20507;-62
2023/09/17 00:54:03;;;;;;;13.27;7.47;;;;;;;19.70;100.00;100747.06;5027065;28;20030;-64
2023/09/17 00:56:29;;;;;;;8.85;7.93;;;;;;;19.67;100.00;100743.72;5027286;28;20033;-62
2023/09/17 00:58:55;;;;;;;9.88;8.07;;;;;;;19.63;100.00;100743.84;5032575;28;20081;-63
2023/09/17 01:01:21;;;;;;;11.50;7.80;;;;;;;19.60;100.00;100740.50;5024397;28;20034;-69
2023/09/17 01:03:47;;;;;;;13.85;10.48;;;;;;;19.56;100.00;100733.72;5023728;28;20116;-68
2023/09/17 01:06:13;;;;;;;12.55;8.73;;;;;;;19.51;100.00;100728.69;5029942;28;20108;-68
2023/09/17 01:08:40;;;;;;;13.13;9.85;;;;;;;19.52;100.00;100721.66;5024488;28;20120;-68
2023/09/17 01:11:07;;;;;;;11.32;8.43;;;;;;;19.54;100.00;100735.56;5034973;28;20523;-68
2023/09/17 01:13:39;;;;;;;9.95;8.52;;;;;;;19.53;100.00;100726.81;5026940;28;20440;-68
2023/09/17 01:16:05;;;;;;;12.32;9.25;;;;;;;19.52;100.00;100717.28;5011777;28;20037;-63
2023/09/17 01:18:32;;;;;;;10.30;8.50;;;;;;;19.55;100.00;100725.00;5027783;28;20400;-64
2023/09/17 01:21:33;;;;;;;10.60;8.55;;;;;;;19.57;100.00;100728.41;5029619;28;20072;-59
2023/09/17 01:24:13;;;;;;;10.40;8.40;;;;;;;19.58;100.00;100721.38;4952861;28;20081;-59
2023/09/17 01:26:40;;;;;;;11.07;8.82;;;;;;;19.58;100.00;100718.78;5018130;28;20033;-59
2023/09/17 01:29:06;;;;;;;12.05;8.88;;;;;;;19.58;100.00;100716.16;5027916;28;20024;-59
2023/09/17 01:31:34;;;;;;;11.50;9.23;;;;;;;19.59;100.00;100720.47;5010903;28;20091;-59
2023/09/17 01:34:00;;;;;;;9.60;8.60;;;;;;;19.58;100.00;100719.63;5008821;28;20553;-61
2023/09/17 01:36:37;;;;;;;11.85;9.77;;;;;;;19.61;100.00;100740.47;5026900;28;20033;-69
2023/09/17 01:39:16;;;;;;;13.68;9.52;;;;;;;19.61;100.00;100742.22;5023526;28;20395;-59
2023/09/17 01:41:44;;;;;;;12.30;10.70;;;;;;;19.67;100.00;100720.97;5026848;28;20029;-59
2023/09/17 01:44:10;;;;;;;13.73;11.98;;;;;;;19.69;100.00;100721.75;5029612;28;20033;-60
2023/09/17 01:46:39;;;;;;;14.82;11.80;;;;;;;19.68;100.00;100716.59;5027644;28;20029;-60
2023/09/17 01:49:05;;;;;;;16.92;12.25;;;;;;;19.63;100.00;100717.63;5025703;28;20039;-63
2023/09/17 01:51:31;;;;;;;18.10;11.63;;;;;;;19.65;100.00;100716.72;5026067;28;20037;-64
2023/09/17 01:53:57;;;;;;;13.73;11.82;;;;;;;19.64;100.00;100721.09;5024895;28;20225;-64
2023/09/17 01:56:22;;;;;;;14.32;11.27;;;;;;;19.63;100.00;100722.03;5025466;28;20547;-65
2023/09/17 01:58:47;;;;;;;18.00;12.30;;;;;;;19.65;100.00;100720.16;5025134;28;20034;-64
2023/09/17 02:01:13;;;;;;;15.02;11.90;;;;;;;19.60;100.00;100725.63;5027477;28;20148;-66
2023/09/17 02:03:39;;;;;;;12.77;11.35;;;;;;;19.58;100.00;100714.38;5025979;28;20032;-60
2023/09/17 02:06:04;;;;;;;11.77;10.45;;;;;;;19.57;100.00;100720.53;5027414;28;20441;-59
2023/09/17 02:08:30;;;;;;;14.98;10.23;;;;;;;19.57;100.00;100722.31;5024476;28;20673;-61
2023/09/17 02:10:56;;;;;;;13.55;10.27;;;;;;;19.56;100.00;100725.88;5021888;28;20041;-60
2023/09/17 02:13:21;;;;;;;16.63;12.20;;;;;;;19.56;100.00;100721.44;5023245;28;20037;-60
2023/09/17 02:15:47;;;;;;;19.58;13.85;;;;;;;19.58;100.00;100716.16;5028294;28;20029;-59
2023/09/17 02:18:12;;;;;;;15.45;12.38;;;;;;;19.58;100.00;100716.16;5030319;28;20642;-60
2023/09/17 02:20:38;;;;;;;14.77;11.05;;;;;;;19.60;100.00;100714.28;5030095;28;20037;-59
2023/09/17 02:23:04;;;;;;;12.23;10.93;;;;;;;19.60;100.00;100719.53;5032884;28;20098;-69
2023/09/17 02:25:29;;;;;;;15.48;12.32;;;;;;;19.59;100.00;100717.84;5030833;28;20038;-69
2023/09/17 02:27:54;;;;;;;15.80;11.77;;;;;;;19.57;100.00;100715.28;5025345;28;20037;-60
2023/09/17 02:30:20;;;;;;;18.23;12.93;;;;;;;19.58;100.00;100706.50;5027395;28;20083;-59
2023/09/17 02:32:45;;;;;;;17.27;13.88;;;;;;;19.59;100.00;100702.13;5024946;28;20045;-60
2023/09/17 02:35:11;;;;;;;17.30;12.82;;;;;;;19.56;100.00;100707.50;5024430;28;20029;-60
2023/09/17 02:37:37;;;;;;;15.65;12.70;;;;;;;19.55;100.00;100706.66;5025283;28;20060;-60
2023/09/17 02:40:04;;;;;;;12.65;11.13;;;;;;;19.54;100.00;100707.56;5029846;28;20416;-60
2023/09/17 02:42:30;;;;;;;17.77;12.68;;;;;;;19.51;100.00;100697.22;5028382;28;20033;-60
2023/09/17 02:44:55;;;;;;;12.88;11.15;;;;;;;19.52;100.00;100692.84;5023240;28;20041;-60
2023/09/17 02:47:21;;;;;;;15.13;12.50;;;;;;;19.52;100.00;100693.69;5029698;28;20033;-59
2023/09/17 02:49:46;;;;;;;16.63;12.85;;;;;;;19.51;100.00;100691.97;5025425;28;20033;-59
2023/09/17 02:52:11;;;;;;;15.50;12.88;;;;;;;19.53;100.00;100690.13;5028938;28;20037;-60
2023/09/17 02:54:37;;;;;;;13.98;11.95;;;;;;;19.55;100.00;100687.44;5027525;28;20472;-69
2023/09/17 02:57:02;;;;;;;18.67;11.95;;;;;;;19.55;100.00;100695.31;5024840;28;20084;-69
2023/09/17 02:59:28;;;;;;;13.25;11.43;;;;;;;19.55;100.00;100693.53;5032657;28;20542;-69
2023/09/17 03:01:53;;;;;;;17.08;13.90;;;;;;;19.55;100.00;100688.31;5023725;28;20041;-69
2023/09/17 03:04:18;;;;;;;16.42;12.25;;;;;;;19.52;100.00;100690.22;5017072;28;20116;-69
2023/09/17 03:06:44;;;;;;;14.15;12.70;;;;;;;19.51;100.00;100688.50;5021682;28;20510;-69
2023/09/17 03:09:11;;;;;;;12.77;11.50;;;;;;;19.50;100.00;100692.88;5022730;28;20100;-64
2023/09/17 03:11:37;;;;;;;15.70;13.20;;;;;;;19.51;100.00;100697.22;5030597;28;20040;-64
2023/09/17 03:14:03;;;;;;;14.55;11.27;;;;;;;19.52;100.00;100711.19;5026059;28;20033;-64
2023/09/17 03:16:29;;;;;;;22.08;15.05;;;;;;;19.54;100.00;100701.47;5027864;28;20040;-64
2023/09/17 03:18:55;;;;;;;18.95;14.25;;;;;;;19.56;100.00;100692.59;5027430;28;20036;-65
2023/09/17 03:21:21;;;;;;;20.00;15.07;;;;;;;19.55;100.00;100685.69;5025866;28;20033;-65
2023/09/17 03:23:46;;;;;;;18.27;14.40;;;;;;;19.52;100.00;100690.22;5030621;28;20040;-66
2023/09/17 03:26:12;;;;;;;17.20;13.85;;;;;;;19.49;100.00;100685.09;5038848;28;20033;-65
2023/09/17 03:28:37;;;;;;;19.42;14.05;;;;;;;19.47;100.00;100690.41;5031011;28;20029;-65
2023/09/17 03:31:03;;;;;;;17.15;14.20;;;;;;;19.44;100.00;100689.72;5038620;28;20035;-62
2023/09/17 03:33:29;;;;;;;15.45;13.20;;;;;;;19.41;100.00;100695.94;5031330;28;20029;-62
2023/09/17 03:35:54;;;;;;;15.70;12.88;;;;;;;19.40;100.00;100690.78;5027331;28;20041;-62
2023/09/17 03:38:20;;;;;;;15.55;13.05;;;;;;;19.39;100.00;100691.69;5024142;28;20037;-62
2023/09/17 03:40:46;;;;;;;18.27;12.75;;;;;;;19.38;100.00;100693.47;5023481;28;20069;-63
2023/09/17 03:43:11;;;;;;;18.98;13.75;;;;;;;19.38;100.00;100693.47;5023419;28;20061;-62
2023/09/17 03:45:37;;;;;;;18.27;13.80;;;;;;;19.35;100.00;100693.63;5023123;28;20036;-62
2023/09/17 03:48:04;;;;;;;17.35;14.93;;;;;;;19.33;100.00;100689.34;5024205;28;20053;-62
2023/09/17 03:50:30;;;;;;;20.67;16.02;;;;;;;19.32;100.00;100685.91;5028901;28;20041;-62
2023/09/17 03:52:58;;;;;;;16.83;13.88;;;;;;;19.27;100.00;100693.09;5025472;28;20040;-62
2023/09/17 03:55:24;;;;;;;16.90;13.85;;;;;;;19.24;100.00;100682.75;5028205;28;20052;-61
2023/09/17 03:57:50;;;;;;;14.65;12.63;;;;;;;19.22;100.00;100681.97;5023578;28;20504;-62
2023/09/17 04:00:17;;;;;;;18.63;13.45;;;;;;;19.21;100.00;100684.66;5024163;28;20159;-61
2023/09/17 04:02:43;;;;;;;16.45;14.00;;;;;;;19.20;100.00;100693.44;5018193;28;20120;-61
2023/09/17 04:05:12;;;;;;;18.83;14.20;;;;;;;19.17;100.00;100693.59;5023422;28;20113;-61
2023/09/17 04:07:39;;;;;;;14.02;12.15;;;;;;;19.15;100.00;100692.78;5017259;28;20741;-65
2023/09/17 04:10:06;;;;;;;20.75;13.70;;;;;;;19.14;100.00;100686.72;5020361;28;20037;-64
2023/09/17 04:12:40;;;;;;;15.00;12.65;;;;;;;19.13;100.00;100694.63;5023511;28;20078;-65
2023/09/17 04:15:08;;;;;;;16.98;13.82;;;;;;;19.14;100.00;100693.72;5022161;28;20044;-65
2023/09/17 04:17:34;;;;;;;15.80;12.68;;;;;;;19.13;100.00;100697.25;5023929;28;20037;-64
2023/09/17 04:19:59;;;;;;;14.73;13.05;;;;;;;19.11;100.00;100686.84;5026673;28;20523;-64
2023/09/17 04:22:24;;;;;;;20.20;15.20;;;;;;;19.13;100.00;100692.88;5020871;28;20428;-65
2023/09/17 04:24:50;;;;;;;14.85;13.30;;;;;;;19.13;100.00;100689.38;5023368;28;20037;-64
2023/09/17 04:27:16;;;;;;;16.48;13.30;;;;;;;19.12;100.00;100685.09;5024400;28;20424;-64
2023/09/17 04:29:41;;;;;;;18.15;14.10;;;;;;;19.11;100.00;100688.63;5020816;28;20036;-65
2023/09/17 04:32:07;;;;;;;17.73;14.60;;;;;;;19.10;100.00;100697.38;5031470;28;20048;-64
2023/09/17 04:34:32;;;;;;;15.93;13.60;;;;;;;19.07;100.00;100694.00;5023446;28;20041;-66
2023/09/17 04:36:58;;;;;;;16.98;14.70;;;;;;;19.04;100.00;100693.28;5026809;28;20052;-67
2023/09/17 04:39:25;;;;;;;15.20;12.88;;;;;;;19.02;100.00;100697.75;5027768;28;20033;-64
2023/09/17 04:41:50;;;;;;;15.27;13.48;;;;;;;18.99;100.00;100701.34;5027027;28;20051;-61
2023/09/17 04:44:15;;;;;;;17.95;14.13;;;;;;;18.98;100.00;100699.63;5024712;28;20037;-61
2023/09/17 04:46:42;;;;;;;20.48;16.40;;;;;;;19.00;100.00;100694.31;5027435;28;20041;-62
2023/09/17 04:49:08;;;;;;;18.95;15.52;;;;;;;18.97;100.00;100700.53;5027059;28;20045;-69
2023/09/17 04:51:34;;;;;;;21.75;16.63;;;;;;;18.97;100.00;100697.06;5027045;28;20118;-67
2023/09/17 04:54:00;;;;;;;20.38;15.63;;;;;;;18.96;100.00;100700.63;5026353;28;20034;-68
2023/09/17 04:56:25;;;;;;;17.70;14.23;;;;;;;18.94;100.00;100698.06;5030499;28;20113;-64
2023/09/17 04:58:50;;;;;;;19.13;13.95;;;;;;;18.94;100.00;100702.44;5032093;28;20128;-65
2023/09/17 05:01:16;;;;;;;21.63;14.98;;;;;;;18.93;100.00;100708.63;5026646;28;20037;-65
2023/09/17 05:03:46;;;;;;;21.92;16.92;;;;;;;18.92;100.00;100701.66;5022397;28;20029;-63
2023/09/17 05:06:12;;;;;;;20.85;16.38;;;;;;;18.90;100.00;100701.75;5027518;28;20018;-65
2023/09/17 05:08:37;;;;;;;18.95;14.38;;;;;;;18.90;100.00;100706.13;5019823;28;20171;-65
2023/09/17 05:11:03;;;;;;;15.77;12.35;;;;;;;18.86;100.00;100702.78;5027200;28;20295;-65
2023/09/17 05:13:28;;;;;;;15.77;13.20;;;;;;;18.86;100.00;100710.66;5026063;28;20033;-61
2023/09/17 05:15:54;;;;;;;16.50;13.65;;;;;;;18.82;100.00;100709.03;5028172;28;20025;-62
2023/09/17 05:18:19;;;;;;;19.38;14.55;;;;;;;18.82;100.00;100710.81;5029823;28;20057;-63
2023/09/17 05:20:48;;;;;;;15.43;12.77;;;;;;;18.80;100.00;100713.50;5029264;28;20038;-61
2023/09/17 05:23:13;;;;;;;19.38;13.32;;;;;;;18.81;100.00;100715.22;5024626;28;20040;-62
2023/09/17 05:25:39;;;;;;;16.38;13.15;;;;;;;18.78;100.00;100717.97;5025982;28;20400;-62
2023/09/17 05:28:06;;;;;;;21.30;16.85;;;;;;;18.78;100.00;100722.34;5026221;28;20144;-61
2023/09/17 05:30:35;;;;;;;19.10;15.15;;;;;;;18.77;100.00;100720.63;5031436;28;20024;-61
2023/09/17 05:33:01;;;;;;;20.48;14.90;;;;;;;18.75;100.00;100722.47;5005509;28;20123;-61
2023/09/17 05:35:27;;;;;;;15.15;12.07;;;;;;;18.71;100.00;100724.34;5021436;28;20454;-60
2023/09/17 05:37:52;;;;;;;18.25;14.85;;;;;;;18.69;100.00;100723.59;5025827;28;20037;-60
2023/09/17 05:40:17;;;;;;;21.80;16.17;;;;;;;18.68;100.00;100727.09;5025891;28;20079;-60
2023/09/17 05:42:43;;;;;;;19.25;15.02;;;;;;;18.69;100.00;100733.19;5024587;28;20529;-60
2023/09/17 05:45:09;;;;;;;17.55;14.20;;;;;;;18.68;100.00;100734.09;5025745;28;20087;-60
2023/09/17 05:47:34;;;;;;;19.05;15.23;;;;;;;18.67;100.00;100735.88;5023885;28;20040;-60
2023/09/17 05:49:59;;;;;;;21.42;15.88;;;;;;;18.69;100.00;100739.28;5025579;28;20354;-60
2023/09/17 05:52:25;;;;;;;18.88;14.57;;;;;;;18.71;100.00;100740.06;5025601;28;20033;-60
2023/09/17 05:54:50;;;;;;;19.20;14.13;;;;;;;18.71;100.00;100747.91;5025782;28;20061;-60
2023/09/17 05:57:16;;;;;;;17.98;13.98;;;;;;;18.74;100.00;100753.03;5026855;28;20060;-64
2023/09/17 05:59:42;;;;;;;20.77;16.13;;;;;;;18.76;100.00;100748.56;5032664;28;20372;-65
2023/09/17 06:02:09;;;;;;;21.15;16.23;;;;;;;18.80;100.00;100754.53;5031778;28;20030;-65
2023/09/17 06:04:35;;;;;;;19.98;16.65;;;;;;;18.84;100.00;100750.88;5025240;28;20561;-65
2023/09/17 06:07:01;;;;;;;18.95;15.23;;;;;;;18.90;100.00;100754.13;5007851;28;20116;-64
2023/09/17 06:09:26;;;;;;;22.70;17.45;;;;;;;18.96;100.00;100750.41;5028147;28;20040;-61
2023/09/17 06:11:51;;;;;;;19.23;15.50;;;;;;;19.00;100.00;100757.19;5026287;28;20041;-61
2023/09/17 06:14:17;;;;;;;18.08;14.55;;;;;;;19.05;100.00;100750.84;5024626;28;20030;-61
2023/09/17 06:16:43;;;;;;;21.95;16.50;;;;;;;19.11;100.00;100756.75;5024448;28;20049;-64
2023/09/17 06:19:08;;;;;;;18.80;14.88;;;;;;;19.15;100.00;100760.91;5028112;28;20136;-62
2023/09/17 06:21:34;;;;;;;22.48;16.75;;;;;;;19.21;100.00;100763.25;5022846;28;20033;-62
2023/09/17 06:23:59;;;;;;;20.05;16.15;;;;;;;19.28;100.00;100754.22;5025048;28;20025;-63
2023/09/17 06:26:24;;;;;;;22.08;17.88;;;;;;;19.34;100.00;100757.44;5024891;28;20098;-63
2023/09/17 06:28:50;;;;;;;21.88;17.48;;;;;;;19.40;100.00;100761.53;5025214;28;20046;-64
2023/09/17 06:31:15;;;;;;;19.92;16.35;;;;;;;19.47;100.00;100760.38;5025362;28;20025;-64
2023/09/17 06:33:40;;;;;;;23.23;17.55;;;;;;;19.54;100.00;100767.00;5024231;28;20451;-63
2023/09/17 06:36:06;;;;;;;19.33;16.20;;;;;;;19.58;100.00;100760.72;5025765;28;20084;-63
2023/09/17 06:38:31;;;;;;;18.48;14.77;;;;;;;19.63;100.00;100766.59;5025263;28;20134;-64
2023/09/17 06:40:57;;;;;;;19.05;14.30;;;;;;;19.68;100.00;100755.91;5024723;28;20049;-64
2023/09/17 06:43:22;;;;;;;16.98;14.50;;;;;;;19.72;100.00;100752.22;5024276;28;20095;-63
2023/09/17 06:45:48;;;;;;;17.17;13.93;;;;;;;19.71;100.00;100759.22;5022508;28;20056;-63
2023/09/17 06:48:14;;;;;;;17.48;13.50;;;;;;;19.75;100.00;100758.19;5025914;28;20411;-64
2023/09/17 06:50:39;;;;;;;18.00;12.98;;;;;;;19.79;100.00;100756.31;5025311;28;20125;-64
2023/09/17 06:53:04;;;;;;;13.60;11.57;;;;;;;19.82;100.00;100766.66;5024595;28;20512;-64
2023/09/17 06:55:30;;;;;;;19.17;12.23;;;;;;;19.86;100.00;100757.72;5025063;28;20045;-63
2023/09/17 06:57:55;;;;;;;15.98;11.80;;;;;;;19.88;100.00;100754.09;5024574;28;20448;-64
2023/09/17 07:00:20;;;;;;;12.40;10.70;;;;;;;19.92;100.00;100760.03;5024476;28;20032;-64
2023/09/17 07:02:46;;;;;;;11.50;9.93;;;;;;;19.97;100.00;100763.31;5019434;28;20052;-64
2023/09/17 07:05:11;;;;;;;15.05;10.20;;;;;;;20.01;100.00;100759.59;5024665;28;20111;-64
2023/09/17 07:07:37;;;;;;;10.30;8.88;;;;;;;20.02;100.00;100762.19;5018628;28;20121;-64
2023/09/17 07:10:04;;;;;;;13.05;10.45;;;;;;;20.03;100.00;100756.00;5025654;28;20164;-64
2023/09/17 07:12:29;;;;;;;10.18;8.32;;;;;;;20.09;100.00;100760.13;5020596;28;20122;-64
2023/09/17 07:14:55;;;;;;;9.02;7.90;;;;;;;20.16;100.00;100764.13;5024688;28;20757;-61
2023/09/17 07:17:20;;;;;;;11.77;8.13;;;;;;;20.20;100.00;100755.19;5029015;28;20029;-63
2023/09/17 07:19:46;;;;;;;10.93;9.07;;;;;;;20.25;100.00;100755.81;5027866;28;20096;-61
2023/09/17 07:22:14;;;;;;;10.38;8.15;;;;;;;20.32;100.00;100754.59;5021825;28;20033;-60
2023/09/17 07:24:41;;;;;;;11.25;8.52;;;;;;;20.36;100.00;100750.06;5025435;28;20064;-64
2023/09/17 07:27:06;;;;;;;10.93;8.50;;;;;;;20.40;100.00;100754.22;5025218;28;20022;-64
2023/09/17 07:29:32;;;;;;;8.60;7.65;;;;;;;20.43;100.00;100746.19;5023318;28;20151;-61
2023/09/17 07:31:57;;;;;;;9.32;7.60;;;;;;;20.46;100.00;100749.53;5022847;28;20037;-60
2023/09/17 07:34:23;;;;;;;10.02;7.47;;;;;;;20.51;100.00;100749.31;5024595;28;20039;-60
2023/09/17 07:36:49;;;;;;;11.25;7.72;;;;;;;20.55;100.00;100758.72;5025377;28;20028;-68
2023/09/17 07:39:14;;;;;;;13.68;7.38;;;;;;;20.58;100.00;100762.06;5025024;28;20029;-68
2023/09/17 07:41:40;;;;;;;8.82;7.20;;;;;;;20.64;100.00;100763.53;5030858;28;20057;-61
2023/09/17 07:44:05;;;;;;;7.88;6.75;;;;;;;20.72;100.00;100761.38;5022304;28;20030;-61
2023/09/17 07:46:31;;;;;;;9.48;6.75;;;;;;;20.77;100.00;100766.44;5024286;28;20580;-61
2023/09/17 07:48:56;;;;;;;8.02;6.68;;;;;;;20.79;100.00;100761.94;5032771;28;20035;-61
2023/09/17 07:51:22;;;;;;;8.20;6.63;;;;;;;20.86;100.00;100763.34;5025167;28;20122;-61
2023/09/17 07:53:47;;;;;;;9.75;6.53;;;;;;;20.89;100.00;100763.19;5023872;28;20523;-61
2023/09/17 07:56:12;;;;;;;7.35;6.10;;;;;;;20.96;100.00;100764.56;5022746;28;20153;-61
2023/09/17 07:58:37;;;;;;;8.40;6.05;;;;;;;21.01;100.00;100771.28;5023905;28;20108;-60
2023/09/17 08:01:05;;;;;;;8.20;6.15;;;;;;;21.06;100.00;100766.66;5023925;28;20039;-61
2023/09/17 08:03:31;;;;;;;8.77;6.47;;;;;;;21.15;100.00;100768.81;5023869;28;20756;-61
2023/09/17 08:05:57;;;;;;;10.20;6.22;;;;;;;21.19;100.00;100772.13;5024524;28;20041;-61
2023/09/17 08:08:22;;;;;;;11.45;6.60;;;;;;;21.24;100.00;100775.34;5024523;28;20691;-61
2023/09/17 08:10:49;;;;;;;7.53;5.75;;;;;;;21.32;100.00;100775.78;5026388;28;20048;-61
2023/09/17 08:13:14;;;;;;;9.55;6.50;;;;;;;21.30;100.00;100774.19;5027594;28;20030;-61
2023/09/17 08:15:40;;;;;;;7.00;5.80;;;;;;;21.29;100.00;100778.59;5027325;28;20096;-61
2023/09/17 08:18:05;;;;;;;9.13;6.00;;;;;;;21.40;100.00;100770.16;5032799;28;20034;-61
2023/09/17 08:20:31;;;;;;;8.85;5.35;;;;;;;21.50;98.99;100776.59;5030235;28;20039;-63
2023/09/17 08:22:57;;;;;;;7.40;5.20;;;;;;;21.54;96.20;100759.75;5024487;28;20046;-63
2023/09/17 08:25:22;;;;;;;5.65;4.95;;;;;;;21.63;97.54;100767.19;5027840;28;20411;-63
2023/09/17 08:27:48;;;;;;;8.27;5.43;;;;;;;21.67;98.23;100772.16;5028046;28;20041;-63
2023/09/17 08:30:15;;;;;;;8.40;5.63;;;;;;;21.71;98.05;100767.59;5025420;28;20025;-63
2023/09/17 08:32:43;;;;;;;7.80;5.35;;;;;;;21.81;95.81;100760.91;5029853;28;20551;-62
2023/09/17 08:35:09;;;;;;;7.15;4.53;;;;;;;21.90;93.62;100752.53;5030463;28;20091;-62
2023/09/17 08:37:38;;;;;;;5.88;4.72;;;;;;;21.94;94.26;100759.28;5027934;28;20131;-62
2023/09/17 08:40:09;;;;;;;7.45;5.32;;;;;;;21.99;93.90;100765.19;5028787;28;20042;-62
2023/09/17 08:42:40;;;;;;;6.45;5.07;;;;;;;22.09;93.03;100766.34;5026860;28;20057;-59
2023/09/17 08:45:06;;;;;;;7.32;5.47;;;;;;;22.15;93.25;100767.78;5025543;28;20029;-60
2023/09/17 08:47:32;;;;;;;12.15;5.50;;;;;;;22.41;91.57;100763.72;5027853;28;20056;-61
2023/09/17 08:49:57;;;;;;;5.40;4.18;;;;;;;22.41;91.96;100767.22;5010468;28;20480;-66
2023/09/17 08:52:28;;;;;;;7.85;4.95;;;;;;;22.49;90.53;100772.03;5026967;28;20037;-61
2023/09/17 08:54:54;;;;;;;7.22;5.15;;;;;;;22.50;91.14;100777.19;5029744;28;20492;-66
2023/09/17 08:57:22;;;;;;;7.60;4.63;;;;;;;22.56;90.58;100771.56;5028050;28;20552;-62
2023/09/17 08:59:56;;;;;;;6.13;4.45;;;;;;;22.66;89.86;100762.22;5008271;28;20038;-62
2023/09/17 09:02:25;;;;;;;5.27;4.77;;;;;;;22.69;90.22;100769.94;5027964;28;20029;-62
2023/09/17 09:04:52;;;;;;;6.25;4.32;;;;;;;22.69;89.54;100772.56;5010307;28;20567;-67
2023/09/17 09:07:21;;;;;;;5.97;4.30;;;;;;;22.69;88.00;100766.47;5023275;28;20033;-67
2023/09/17 09:09:49;;;;;;;7.03;4.53;;;;;;;22.78;87.74;100776.47;5032021;28;20029;-67
2023/09/17 09:12:15;;;;;;;6.68;4.07;;;;;;;22.84;88.26;100784.00;5026996;28;20033;-67
2023/09/17 09:14:43;;;;;;;5.30;4.22;;;;;;;22.97;86.29;100771.81;5026903;28;20519;-67
2023/09/17 09:17:10;;;;;;;6.07;4.05;;;;;;;23.06;85.94;100776.53;5026023;28;20044;-67
2023/09/17 09:19:35;;;;;;;4.75;4.22;;;;;;;23.11;85.17;100774.47;5026465;28;20236;-67
2023/09/17 09:22:01;;;;;;;5.50;3.97;;;;;;;23.17;85.18;100771.47;5031407;28;20033;-67
2023/09/17 09:24:29;;;;;;;5.93;4.20;;;;;;;23.39;82.64;100761.31;5032124;28;20036;-67
2023/09/17 09:26:55;;;;;;;5.45;4.05;;;;;;;23.48;82.13;100769.66;5028947;28;20384;-67
2023/09/17 09:29:21;;;;;;;5.30;3.80;;;;;;;23.49;82.47;100758.97;5023892;28;20021;-67
2023/09/17 09:31:46;;;;;;;5.90;3.92;;;;;;;23.54;82.14;100770.09;5026868;28;20048;-66
2023/09/17 09:34:12;;;;;;;4.90;3.92;;;;;;;23.53;82.52;100775.47;5027503;28;20095;-62
2023/09/17 09:36:43;;;;;;;5.03;3.90;;;;;;;23.63;80.92;100753.69;5026938;28;20048;-61
2023/09/17 09:39:09;;;;;;;7.45;4.45;;;;;;;23.75;80.01;100752.91;5023049;28;20057;-62
2023/09/17 09:41:34;;;;;;;7.47;3.70;;;;;;;23.81;79.28;100759.59;5026543;28;20091;-62
2023/09/17 09:44:00;;;;;;;7.13;3.70;;;;;;;23.86;79.74;100754.91;5024840;28;20044;-62
2023/09/17 09:46:25;;;;;;;4.88;3.95;;;;;;;23.91;78.59;100751.03;5025069;28;20127;-62
2023/09/17 09:48:51;;;;;;;5.20;4.28;;;;;;;24.01;77.94;100755.75;5032586;28;20461;-59
2023/09/17 09:51:18;;;;;;;4.63;3.55;;;;;;;24.07;78.59;100752.72;5027133;28;20022;-59
2023/09/17 09:53:44;;;;;;;5.20;3.63;;;;;;;24.19;78.06;100747.50;5025761;28;20693;-59
2023/09/17 09:56:11;;;;;;;4.97;3.30;;;;;;;24.20;76.86;100729.81;5030073;28;20527;-59
2023/09/17 09:58:36;;;;;;;5.60;3.45;;;;;;;24.32;75.58;100732.53;5030027;28;20068;-61
2023/09/17 10:01:04;;;;;;;6.60;3.30;;;;;;;24.33;76.16;100723.66;5030759;28;20510;-67
2023/09/17 10:03:29;;;;;;;4.00;3.45;;;;;;;24.49;75.31;100715.56;5032786;28;20038;-67
2023/09/17 10:06:06;;;;;;;5.57;3.53;;;;;;;24.50;75.64;100727.81;5030609;28;20033;-66
2023/09/17 10:08:34;;;;;;;4.97;3.60;;;;;;;24.53;76.20;100722.31;5028200;28;20113;-67
2023/09/17 10:10:59;;;;;;;3.90;3.08;;;;;;;24.56;72.51;100685.13;5026228;28;20448;-61
2023/09/17 10:13:25;;;;;;;4.43;3.03;;;;;;;24.65;73.03;100684.50;5027936;28;20548;-62
2023/09/17 10:15:50;;;;;;;5.70;3.40;;;;;;;24.95;69.76;100658.66;5025148;28;20029;-61
2023/09/17 10:18:17;;;;;;;4.10;3.30;;;;;;;24.96;70.01;100670.94;5026298;28;20024;-67
2023/09/17 10:20:44;;;;;;;7.10;3.38;;;;;;;24.89;70.41;100682.00;5028755;28;20045;-67
2023/09/17 10:23:12;;;;;;;4.68;3.35;;;;;;;24.87;70.14;100689.22;5031569;28;20044;-67
2023/09/17 10:25:39;;;;;;;4.45;3.58;;;;;;;24.87;71.26;100695.34;5030009;28;20720;-67
2023/09/17 10:28:07;;;;;;;4.80;3.30;;;;;;;24.91;70.97;100686.25;5028970;28;20036;-62
2023/09/17 10:30:33;;;;;;;4.85;3.22;;;;;;;25.11;69.29;100655.78;5026357;28;20017;-62
2023/09/17 10:33:01;;;;;;;3.58;2.95;;;;;;;25.19;69.07;100658.72;5025590;28;20036;-62
2023/09/17 10:35:28;;;;;;;5.60;3.33;;;;;;;25.22;70.05;100671.75;5007799;28;20043;-62
2023/09/17 10:37:57;;;;;;;4.20;3.00;;;;;;;25.25;68.18;100649.50;5027639;28;20381;-62
2023/09/17 10:40:25;;;;;;;4.38;2.92;;;;;;;25.35;68.62;100658.50;5026920;28;20033;-62
2023/09/17 10:42:52;;;;;;;3.45;2.83;;;;;;;25.39;68.22;100655.50;5026339;28;20030;-59
2023/09/17 10:45:20;;;;;;;4.43;3.10;;;;;;;25.62;68.29;100659.16;5024517;28;20037;-59
2023/09/17 10:47:49;;;;;;;3.63;2.35;;;;;;;25.86;63.78;100571.78;5026407;28;20045;-59
2023/09/17 10:50:15;;;;;;;3.35;2.63;;;;;;;25.92;64.06;100588.06;5031959;28;20061;-59
2023/09/17 10:52:41;;;;;;;3.92;2.58;;;;;;;25.95;65.20;100613.50;5026937;28;20065;-59
2023/09/17 10:55:08;;;;;;;3.65;2.58;;;;;;;25.96;65.22;100607.25;5018942;28;20447;-59
2023/09/17 10:57:41;;;;;;;5.03;2.67;;;;;;;26.11;62.57;100574.34;5022815;28;20029;-63
2023/09/17 11:00:14;;;;;;;5.40;2.88;;;;;;;26.21;61.87;100563.88;5020149;28;20043;-59
2023/09/17 11:02:45;;;;;;;4.88;2.40;;;;;;;26.21;62.36;100587.75;5024199;28;20041;-59
2023/09/17 11:05:12;;;;;;;3.17;2.35;;;;;;;26.23;61.81;100569.91;5025429;28;20041;-59